Flight Track Log - Related Links

Times and Time Zones

All times are in EDT time to prevent confusion due to time zone crossing. See the SWA2139 flight status page for this flight to view local times or setup timezone preferences in your user account.

Time Position Orientation Groundspeed Altitude Reporting Facility
EDT Latitude Longitude Course Direction KTS MPH feet Rate Location/Type
Fri 02:32:30 PM 32.7428 -117.2250 288° West 177 204 1,500  Level Los Angeles Center
Fri 02:33:32 PM 32.7617 -117.2942 288° West 221 254 3,700 1,984 Climbing Los Angeles Center
Fri 02:34:34 PM 32.7786 -117.3611 287° West 253 291 5,600 2,613 Climbing Los Angeles Center
Fri 02:35:36 PM 32.8147 -117.4678 292° West 275 316 9,100 2,710 Climbing Los Angeles Center
Fri 02:36:38 PM 32.8703 -117.5400 312° West 305 351 11,200 2,208 Climbing Los Angeles Center
Fri 02:37:41 PM 32.9381 -117.6044 321° Northwest 314 361 13,700 1,752 Climbing Los Angeles Center
Fri 02:38:55 PM 33.0244 -117.6872 321° Northwest 331 381 15,200 1,632 Climbing Los Angeles Center
Fri 02:39:57 PM 33.1106 -117.7986 313° West 378 435 17,400 2,129 Climbing Los Angeles Center
Fri 02:40:59 PM 33.1869 -117.8911 315° West 389 448 19,600 1,887 Climbing Los Angeles Center
Fri 02:42:01 PM 33.2656 -117.9847 315° West 396 456 21,300 1,597 Climbing Los Angeles Center
Fri 02:43:03 PM 33.3478 -118.0825 315° West 411 473 22,900 1,488 Climbing Los Angeles Center
Fri 02:44:06 PM 33.4322 -118.1833 315° West 424 488 24,400 1,296 Climbing Los Angeles Center
Fri 02:45:08 PM 33.5183 -118.2867 315° West 433 498 25,600 1,548 Climbing Los Angeles Center
Fri 02:46:10 PM 33.6533 -118.3608 335° Northwest 450 518 27,600 1,403 Climbing Los Angeles Center
Fri 02:47:12 PM 33.7758 -118.3903 349° North 469 540 28,500 968 Climbing Los Angeles Center
Fri 02:48:14 PM 33.9233 -118.4300 347° North 476 548 29,600 1,588 Climbing Los Angeles Center
Fri 02:49:28 PM 34.0706 -118.4939 340° North 468 539 32,100 1,721 Climbing Los Angeles Center
Fri 02:50:30 PM 34.1639 -118.5375 339° North 455 524 33,500 1,200 Climbing Los Angeles Center
Fri 02:51:33 PM 34.3028 -118.6011 339° North 447 514 34,600 1,056 Climbing Los Angeles Center
Fri 02:52:35 PM 34.4189 -118.6528 340° North 446 513 35,700 677 Climbing Los Angeles Center
Fri 02:53:37 PM 34.5353 -118.7044 340° North 445 512 36,000 145 Climbing Los Angeles Center
Fri 02:54:39 PM 34.6736 -118.7706 339° North 446 513 36,000  Level Los Angeles Center
Fri 02:55:41 PM 34.7897 -118.8242 339° North 449 517 36,000  Level Los Angeles Center
Fri 02:56:43 PM 34.8958 -118.8725 340° North 448 516 36,000  Level Los Angeles Center
Fri 02:57:45 PM 35.0353 -118.9364 339° North 448 516 36,000  Level Los Angeles Center
Fri 02:58:47 PM 35.1503 -118.9892 339° North 444 511 36,000  Level Los Angeles Center
Fri 02:59:49 PM 35.2669 -119.0439 339° North 448 516 36,000  Level Los Angeles Center
Fri 03:01:03 PM 35.3847 -119.0975 340° North 451 519 36,000  Level Los Angeles Center
Fri 03:02:06 PM 35.5247 -119.1628 339° North 450 518 36,000  Level Los Angeles Center
Fri 03:03:08 PM 35.6622 -119.2283 339° North 445 512 36,000  Level Los Angeles Center
Fri 03:04:10 PM 35.7789 -119.2844 339° North 448 516 36,000  Level Los Angeles Center
Fri 03:05:12 PM 35.8944 -119.3397 339° North 447 514 36,000  Level Los Angeles Center
Fri 03:05:45 PM 35.9625 -119.3725 339° North 454 522 36,000  Level Oakland Center
Fri 03:06:46 PM 36.0781 -119.4258 340° North 450 518 36,000  Level Oakland Center
Fri 03:07:47 PM 36.1939 -119.4806 339° North 448 516 36,000  Level Oakland Center
Fri 03:08:49 PM 36.3117 -119.5389 338° Northwest 455 524 36,000  Level Oakland Center
Fri 03:09:50 PM 36.4281 -119.5942 339° North 452 520 36,000  Level Oakland Center
Fri 03:10:51 PM 36.5461 -119.6511 339° North 455 524 36,000  Level Oakland Center
Fri 03:11:53 PM 36.6536 -119.7256 331° Northwest 448 516 36,000  Level Oakland Center
Fri 03:12:54 PM 36.7789 -119.8275 327° Northwest 448 516 36,000  Level Oakland Center
Fri 03:13:55 PM 36.8833 -119.9083 328° Northwest 445 512 36,000 -1,073 Level Oakland Center
Fri 03:14:57 PM 36.9875 -119.9922 327° Northwest 446 513 33,800 -2,439 Descending Oakland Center
Fri 03:15:58 PM 37.0989 -120.0836 327° Northwest 449 517 31,000 -2,439 Descending Oakland Center
Fri 03:17:00 PM 37.2039 -120.1681 327° Northwest 448 516 28,800 -2,146 Descending Oakland Center
Fri 03:18:01 PM 37.3017 -120.2489 327° Northwest 426 490 26,600 -2,115 Descending Oakland Center
Fri 03:19:02 PM 37.3978 -120.3250 328° Northwest 411 473 24,500 -1,561 Descending Oakland Center
Fri 03:20:04 PM 37.4858 -120.4053 324° Northwest 392 451 23,400 -1,027 Descending Oakland Center
Fri 03:20:53 PM 37.5667 -120.4833 323° Northwest 384 442 22,600 -991 Descending Northern Cal TRACON
Fri 03:21:53 PM 37.6500 -120.5667 322° Northwest 382 440 21,600 -991 Descending Northern Cal TRACON
Fri 03:22:48 PM 37.7167 -120.6333 322° Northwest 373 429 20,700 -991 Descending Northern Cal TRACON
Fri 03:23:48 PM 37.8000 -120.7167 322° Northwest 371 427 19,700 -1,000 Descending Northern Cal TRACON
Fri 03:24:48 PM 37.8833 -120.8000 322° Northwest 362 417 18,700 -1,100 Descending Northern Cal TRACON
Fri 03:25:48 PM 37.9500 -120.8833 315° West 363 418 17,500 -1,105 Descending Northern Cal TRACON
Fri 03:26:42 PM 38.0167 -120.9500 322° Northwest 361 415 16,600 -988 Descending Northern Cal TRACON
Fri 03:27:13 PM 38.0633 -120.9897 326° Northwest 356 410 16,100 -978 Descending Oakland Center
Fri 03:28:14 PM 38.1272 -121.0794 312° West 345 397 15,100 -976 Descending Oakland Center
Fri 03:29:16 PM 38.1892 -121.1719 310° West 344 396 14,100 -1,024 Descending Oakland Center
Fri 03:30:17 PM 38.2503 -121.2625 311° West 337 388 13,000 -1,377 Descending Oakland Center
Fri 03:31:18 PM 38.3103 -121.3517 311° West 331 381 11,300 -1,415 Descending Oakland Center
Fri 03:32:20 PM 38.3708 -121.4408 311° West 329 379 10,100 -976 Descending Oakland Center
Fri 03:33:21 PM 38.4269 -121.5261 310° West 313 360 9,300 -1,180 Descending Oakland Center
Fri 03:34:22 PM 38.4936 -121.5906 323° Northwest 302 348 7,700 -1,512 Descending Oakland Center
Fri 03:35:24 PM 38.5664 -121.6458 329° Northwest 302 348 6,200 -1,024 Descending Oakland Center
Fri 03:36:25 PM 38.6356 -121.6958 331° Northwest 287 330 5,600 -295 Descending Oakland Center
Fri 03:37:26 PM 38.6994 -121.6925 North 227 261 5,600 -732 Level Oakland Center
Fri 03:38:28 PM 38.7456 -121.6900 North 174 200 4,100 -1,610 Descending Oakland Center
Fri 03:39:29 PM 38.7758 -121.6453 49° Northeast 167 192 2,300 -1,525 Descending Oakland Center
Fri 03:40:30 PM 38.7564 -121.6031 121° Southeast 150 173 1,000 -984 Descending Oakland Center
Fri 03:41:31 PM 38.7172 -121.5994 176° South 144 166 300 -689 Descending Oakland Center

Login

Don't have an account? Register now (free) for customized features, flight alerts, and more!